createdAt,value
2023-04-19T00:01:44.931Z,5.73
2023-04-19T00:04:13.390Z,6.13
2023-04-19T00:06:43.484Z,5.30
2023-04-19T00:09:11.525Z,5.37
2023-04-19T00:11:39.559Z,5.83
2023-04-19T00:14:07.575Z,5.63
2023-04-19T00:16:35.736Z,6.10
2023-04-19T00:19:03.779Z,5.77
2023-04-19T00:21:32.811Z,6.27
2023-04-19T00:24:00.832Z,4.83
2023-04-19T00:26:28.758Z,5.13
2023-04-19T00:28:56.941Z,5.13
2023-04-19T00:31:25.122Z,5.23
2023-04-19T00:33:53.274Z,5.90
2023-04-19T00:36:21.313Z,5.43
2023-04-19T00:38:49.310Z,5.20
2023-04-19T00:41:17.616Z,5.30
2023-04-19T00:43:45.563Z,5.50
2023-04-19T00:46:13.653Z,5.20
2023-04-19T00:48:41.921Z,5.50
2023-04-19T00:51:12.027Z,5.50
2023-04-19T00:53:40.428Z,5.80
2023-04-19T00:56:08.520Z,5.20
2023-04-19T00:58:36.600Z,5.63
2023-04-19T01:01:04.570Z,5.03
2023-04-19T01:03:32.798Z,5.40
2023-04-19T01:06:00.930Z,5.07
2023-04-19T01:08:28.931Z,5.30
2023-04-19T01:10:56.934Z,5.03
2023-04-19T01:13:25.098Z,5.23
2023-04-19T01:15:53.118Z,5.60
2023-04-19T01:18:21.092Z,5.63
2023-04-19T01:20:49.088Z,5.13
2023-04-19T01:23:17.128Z,5.87
2023-04-19T01:25:45.172Z,5.57
2023-04-19T01:28:13.389Z,5.43
2023-04-19T01:30:41.552Z,5.50
2023-04-19T01:33:09.471Z,5.50
2023-04-19T01:35:37.720Z,6.17
2023-04-19T01:38:06.868Z,5.10
2023-04-19T01:40:35.016Z,5.37
2023-04-19T01:43:03.013Z,5.43
2023-04-19T01:45:30.984Z,6.10
2023-04-19T01:48:00.471Z,5.60
2023-04-19T01:50:28.623Z,5.67
2023-04-19T01:52:56.582Z,6.17
2023-04-19T01:55:24.510Z,5.70
2023-04-19T01:57:54.702Z,5.93
2023-04-19T02:00:23.306Z,5.23
2023-04-19T02:02:51.712Z,5.90
2023-04-19T02:05:19.776Z,5.50
2023-04-19T02:07:47.814Z,5.83
2023-04-19T02:10:15.876Z,5.70
2023-04-19T02:12:44.325Z,5.60
2023-04-19T02:15:12.363Z,5.80
2023-04-19T02:17:40.533Z,5.40
2023-04-19T02:20:12.310Z,5.20
2023-04-19T02:22:40.299Z,5.67
2023-04-19T02:25:08.600Z,5.13
2023-04-19T02:27:36.645Z,5.47
2023-04-19T02:30:04.806Z,5.50
2023-04-19T02:32:33.213Z,5.33
2023-04-19T02:35:01.318Z,5.30
2023-04-19T02:37:29.275Z,5.37
2023-04-19T02:39:57.243Z,4.97
2023-04-19T02:42:25.277Z,6.20
2023-04-19T02:44:53.293Z,4.97
2023-04-19T02:47:21.384Z,4.67
2023-04-19T02:49:49.385Z,5.87
2023-04-19T02:52:17.457Z,5.40
2023-04-19T02:54:45.376Z,4.87
2023-04-19T02:57:13.379Z,5.17
2023-04-19T02:59:41.447Z,5.17
2023-04-19T03:02:09.445Z,5.67
2023-04-19T03:04:37.789Z,5.23
2023-04-19T03:07:05.833Z,5.23
2023-04-19T03:09:33.944Z,5.57
2023-04-19T03:12:02.658Z,5.70
2023-04-19T03:14:30.612Z,4.83
2023-04-19T03:16:58.574Z,5.27
2023-04-19T03:19:26.498Z,4.80
2023-04-19T03:21:54.423Z,4.83
2023-04-19T03:24:28.478Z,5.00
2023-04-19T03:26:56.975Z,5.23
2023-04-19T03:29:25.006Z,4.70
2023-04-19T03:31:52.932Z,4.87
2023-04-19T03:34:20.879Z,4.00
2023-04-19T03:36:48.934Z,4.20
2023-04-19T03:39:16.987Z,4.40
2023-04-19T03:41:44.924Z,4.07
2023-04-19T03:44:13.077Z,3.87
2023-04-19T03:46:41.228Z,3.90
2023-04-19T03:49:09.254Z,3.47
2023-04-19T03:51:37.298Z,3.83
2023-04-19T03:54:05.463Z,3.77
2023-04-19T03:56:33.382Z,3.60
2023-04-19T03:59:01.395Z,3.63
2023-04-19T04:01:29.543Z,3.37
2023-04-19T04:03:57.749Z,3.30
2023-04-19T04:06:25.998Z,3.70
2023-04-19T04:08:53.983Z,3.87
2023-04-19T04:11:21.985Z,3.37
2023-04-19T04:13:51.695Z,3.70
2023-04-19T04:16:19.761Z,4.27
2023-04-19T04:18:47.859Z,3.60
2023-04-19T04:21:15.812Z,3.90
2023-04-19T04:23:43.897Z,3.33
2023-04-19T04:26:12.388Z,4.07
2023-04-19T04:28:40.473Z,4.03
2023-04-19T04:31:08.466Z,4.00
2023-04-19T04:33:36.470Z,4.60
2023-04-19T04:36:05.071Z,4.40
2023-04-19T04:38:33.586Z,4.20
2023-04-19T04:41:01.562Z,4.57
2023-04-19T04:43:31.166Z,4.00
2023-04-19T04:45:59.244Z,4.03
2023-04-19T04:48:27.514Z,5.10
2023-04-19T04:50:55.502Z,4.67
2023-04-19T04:53:23.551Z,5.00
2023-04-19T04:55:51.646Z,5.13
2023-04-19T04:58:20.576Z,4.77
2023-04-19T05:00:50.249Z,4.47
2023-04-19T05:03:18.372Z,4.23
2023-04-19T05:05:46.554Z,4.50
2023-04-19T05:08:14.605Z,4.40
2023-04-19T05:10:42.676Z,4.83
2023-04-19T05:13:10.608Z,4.60
2023-04-19T05:15:38.612Z,3.90
2023-04-19T05:18:07.259Z,4.53
2023-04-19T05:20:35.378Z,4.53
2023-04-19T05:23:04.847Z,4.50
2023-04-19T05:25:32.749Z,4.10
2023-04-19T05:28:00.826Z,4.77
2023-04-19T05:30:28.882Z,4.40
2023-04-19T05:32:57.075Z,4.73
2023-04-19T05:35:25.060Z,4.37
2023-04-19T05:37:53.149Z,4.30
2023-04-19T05:40:21.163Z,4.20
2023-04-19T05:42:49.088Z,4.20
2023-04-19T05:45:17.755Z,4.33
2023-04-19T05:47:45.770Z,4.07
2023-04-19T05:50:13.813Z,4.20
2023-04-19T05:52:42.012Z,4.30
2023-04-19T05:55:10.076Z,4.57
2023-04-19T05:57:38.094Z,4.77
2023-04-19T06:00:06.619Z,4.17
2023-04-19T06:02:34.710Z,4.60
2023-04-19T06:05:09.915Z,4.23
2023-04-19T06:07:43.275Z,4.50
2023-04-19T06:10:15.154Z,4.20
2023-04-19T06:12:43.104Z,4.67
2023-04-19T06:15:11.529Z,4.30
2023-04-19T06:17:39.628Z,4.77
2023-04-19T06:20:09.564Z,4.33
2023-04-19T06:22:42.714Z,4.20
2023-04-19T06:25:10.881Z,4.30
2023-04-19T06:27:39.016Z,5.07
2023-04-19T06:30:07.582Z,4.50
2023-04-19T06:32:35.653Z,4.80
2023-04-19T06:35:03.867Z,4.40
2023-04-19T06:37:31.879Z,4.27
2023-04-19T06:39:59.881Z,3.27
2023-04-19T06:42:28.834Z,4.47
2023-04-19T06:44:58.525Z,3.87
2023-04-19T06:47:26.651Z,4.13
2023-04-19T06:49:55.046Z,3.93
2023-04-19T06:52:23.551Z,4.33
2023-04-19T06:54:52.241Z,4.40
2023-04-19T06:57:20.281Z,4.80
2023-04-19T06:59:48.553Z,4.30
2023-04-19T07:02:16.677Z,4.27
2023-04-19T07:04:45.006Z,4.23
2023-04-19T07:07:13.297Z,4.63
2023-04-19T07:09:41.519Z,4.30
2023-04-19T07:12:09.576Z,4.60
2023-04-19T07:14:37.636Z,4.50
2023-04-19T07:17:06.905Z,4.53
2023-04-19T07:19:36.855Z,4.33
2023-04-19T07:22:04.895Z,4.53
2023-04-19T07:24:32.968Z,4.63
2023-04-19T07:27:01.345Z,4.40
2023-04-19T07:29:29.431Z,4.33
2023-04-19T07:31:57.554Z,4.77
2023-04-19T07:34:25.583Z,4.50
2023-04-19T07:36:53.726Z,4.60
2023-04-19T07:39:21.893Z,4.67
2023-04-19T07:41:49.877Z,4.40
2023-04-19T07:44:18.190Z,4.27
2023-04-19T07:46:46.840Z,4.40
2023-04-19T07:49:15.235Z,4.77
2023-04-19T07:51:43.175Z,4.70
2023-04-19T07:54:11.785Z,4.50
2023-04-19T07:56:39.726Z,5.20
2023-04-19T07:59:09.292Z,4.40
2023-04-19T08:01:38.435Z,5.30
2023-04-19T08:04:06.976Z,5.07
2023-04-19T08:06:35.206Z,4.80
2023-04-19T08:09:03.416Z,4.83
2023-04-19T08:11:31.435Z,4.90
2023-04-19T08:14:09.367Z,4.97
2023-04-19T08:19:18.341Z,4.37
2023-04-19T08:21:46.456Z,5.20
2023-04-19T08:24:14.689Z,4.70
2023-04-19T08:26:42.777Z,4.73
2023-04-19T08:29:10.890Z,4.90
2023-04-19T08:31:38.949Z,4.80
2023-04-19T08:34:06.985Z,4.50
2023-04-19T08:36:41.051Z,4.90
2023-04-19T08:39:24.572Z,5.33
2023-04-19T08:42:07.518Z,5.20
2023-04-19T08:44:58.922Z,5.10
2023-04-19T08:47:33.621Z,4.87
2023-04-19T08:52:51.946Z,5.00
2023-04-19T08:55:22.727Z,5.00
2023-04-19T08:57:51.052Z,4.90
2023-04-19T09:00:19.700Z,4.67
2023-04-19T09:02:54.779Z,4.80
2023-04-19T09:05:23.412Z,5.60
2023-04-19T09:07:51.736Z,5.70
2023-04-19T09:10:20.907Z,5.27
2023-04-19T09:13:06.130Z,5.13
2023-04-19T09:15:41.649Z,5.03
2023-04-19T09:18:13.758Z,5.30
2023-04-19T09:20:43.133Z,5.33
2023-04-19T09:23:13.922Z,5.47
2023-04-19T09:26:11.300Z,5.57
2023-04-19T09:28:30.481Z,5.67
2023-04-19T09:31:10.579Z,4.90
2023-04-19T09:33:47.098Z,5.70
2023-04-19T09:36:32.972Z,4.80
2023-04-19T09:39:01.168Z,5.33
2023-04-19T09:41:29.188Z,5.60
2023-04-19T09:44:15.544Z,5.30
2023-04-19T09:46:46.935Z,5.73
2023-04-19T09:49:22.994Z,5.67
2023-04-19T09:51:56.292Z,5.53
2023-04-19T09:54:26.091Z,5.67
2023-04-19T09:56:57.104Z,5.63
2023-04-19T09:59:26.417Z,5.40
2023-04-19T10:01:57.825Z,5.53
2023-04-19T10:04:41.713Z,5.50
2023-04-19T10:09:53.031Z,5.30
2023-04-19T10:12:51.589Z,5.60
2023-04-19T10:15:13.416Z,5.23
2023-04-19T10:17:41.528Z,5.47
2023-04-19T10:20:12.445Z,5.23
2023-04-19T10:22:40.538Z,4.83
2023-04-19T10:25:13.243Z,4.87
2023-04-19T10:27:42.158Z,4.73
2023-04-19T10:30:19.436Z,4.70
2023-04-19T10:32:57.562Z,4.50
2023-04-19T10:35:46.062Z,6.30
2023-04-19T10:38:16.514Z,6.63
2023-04-19T10:40:54.199Z,6.57
2023-04-19T10:43:26.933Z,7.63
2023-04-19T10:45:54.997Z,8.47
2023-04-19T10:48:31.900Z,8.07
2023-04-19T10:51:16.131Z,8.33
2023-04-19T10:54:16.384Z,7.73
2023-04-19T10:57:04.106Z,7.90
2023-04-19T10:59:45.764Z,7.10
2023-04-19T11:02:29.831Z,8.03
2023-04-19T11:04:57.776Z,7.90
2023-04-19T11:07:26.006Z,8.07
2023-04-19T11:09:54.349Z,7.57
2023-04-19T11:12:22.724Z,7.63
2023-04-19T11:14:54.194Z,7.70
2023-04-19T11:17:28.974Z,6.97
2023-04-19T11:19:57.149Z,7.73
2023-04-19T11:22:41.159Z,7.70
2023-04-19T11:25:15.931Z,7.20
2023-04-19T11:27:45.404Z,7.07
2023-04-19T11:30:21.507Z,6.93
2023-04-19T11:32:59.181Z,7.17
2023-04-19T11:35:28.964Z,7.03
2023-04-19T11:37:57.763Z,6.53
2023-04-19T11:40:27.494Z,6.77
2023-04-19T11:42:56.884Z,7.03
2023-04-19T11:45:36.657Z,7.07
2023-04-19T11:48:08.609Z,7.30
2023-04-19T11:50:43.614Z,6.78
2023-04-19T11:53:15.935Z,6.50
2023-04-19T11:55:52.435Z,6.28
2023-04-19T11:58:38.574Z,6.63
2023-04-19T12:01:10.945Z,6.20
2023-04-19T12:03:52.064Z,7.60
2023-04-19T12:06:27.122Z,6.70
2023-04-19T12:08:55.986Z,6.77
2023-04-19T12:11:26.420Z,6.30
2023-04-19T12:14:10.611Z,6.60
2023-04-19T12:16:38.696Z,6.50
2023-04-19T12:19:16.434Z,7.27
2023-04-19T12:21:44.841Z,6.28
2023-04-19T12:24:13.680Z,6.18
2023-04-19T12:26:56.860Z,6.30
2023-04-19T12:29:24.896Z,7.00
2023-04-19T12:31:52.919Z,5.63
2023-04-19T12:34:21.058Z,6.23
2023-04-19T12:36:49.101Z,6.22
2023-04-19T12:39:17.377Z,6.17
2023-04-19T12:41:45.621Z,5.65
2023-04-19T12:44:13.601Z,6.10
2023-04-19T12:46:41.558Z,8.98
2023-04-19T12:49:09.517Z,28.33
2023-04-19T12:51:37.541Z,6.97
2023-04-19T12:54:05.606Z,6.70
2023-04-19T12:56:33.648Z,6.53
2023-04-19T12:59:01.753Z,5.75
2023-04-19T13:01:30.072Z,6.70
2023-04-19T13:03:59.362Z,5.90
2023-04-19T13:06:29.282Z,6.40
2023-04-19T13:09:00.802Z,5.82
2023-04-19T13:11:29.421Z,6.18
2023-04-19T13:13:57.428Z,6.15
2023-04-19T13:16:25.588Z,5.87
2023-04-19T13:18:56.011Z,6.55
2023-04-19T13:21:25.290Z,5.85
2023-04-19T13:23:53.841Z,6.22
2023-04-19T13:26:21.993Z,5.53
2023-04-19T13:28:50.208Z,6.00
2023-04-19T13:31:18.285Z,6.45
2023-04-19T13:33:46.365Z,5.68
2023-04-19T13:36:14.365Z,6.62
2023-04-19T13:38:42.359Z,5.15
2023-04-19T13:41:11.070Z,5.87
2023-04-19T13:43:39.128Z,5.68
2023-04-19T13:46:07.883Z,6.20
2023-04-19T13:48:35.965Z,6.22
2023-04-19T13:51:04.327Z,5.90
2023-04-19T13:53:32.601Z,5.85
2023-04-19T13:56:00.605Z,6.05
2023-04-19T13:58:28.644Z,5.47
2023-04-19T14:00:56.752Z,5.22
2023-04-19T14:03:25.404Z,5.97
2023-04-19T14:05:53.490Z,5.70
2023-04-19T14:08:22.360Z,5.30
2023-04-19T14:10:51.732Z,5.43
2023-04-19T14:13:19.777Z,4.87
2023-04-19T14:15:48.121Z,5.35
2023-04-19T14:18:16.253Z,5.55
2023-04-19T14:20:44.193Z,5.17
2023-04-19T14:23:12.707Z,5.78
2023-04-19T14:25:40.755Z,5.00
2023-04-19T14:28:09.081Z,5.82
2023-04-19T14:30:37.105Z,5.50
2023-04-19T14:33:05.339Z,4.90
2023-04-19T14:35:33.340Z,4.90
2023-04-19T14:38:01.373Z,4.90
2023-04-19T14:40:29.374Z,5.33
2023-04-19T14:42:57.390Z,4.87
2023-04-19T14:45:25.434Z,4.53
2023-04-19T14:47:53.509Z,4.90
2023-04-19T14:50:22.855Z,5.28
2023-04-19T14:52:50.904Z,5.40
2023-04-19T14:55:19.036Z,4.55
2023-04-19T14:57:47.006Z,4.70
2023-04-19T15:00:15.311Z,4.82
2023-04-19T15:02:43.382Z,4.60
2023-04-19T15:05:11.803Z,4.68
2023-04-19T15:07:39.944Z,4.47
2023-04-19T15:10:08.683Z,4.47
2023-04-19T15:12:36.688Z,5.10
2023-04-19T15:15:05.056Z,5.03
2023-04-19T15:17:33.084Z,4.87
2023-04-19T15:20:01.167Z,5.40
2023-04-19T15:22:29.320Z,5.40
2023-04-19T15:24:57.385Z,4.97
2023-04-19T15:27:25.354Z,5.28
2023-04-19T15:29:53.497Z,4.75
2023-04-19T15:32:21.790Z,4.20
2023-04-19T15:34:49.784Z,4.15
2023-04-19T15:37:18.046Z,3.75
2023-04-19T15:39:46.175Z,4.30
2023-04-19T15:42:14.345Z,4.15
2023-04-19T15:44:44.138Z,4.00
2023-04-19T15:47:12.402Z,4.30
2023-04-19T15:49:42.046Z,4.40
2023-04-19T15:52:10.481Z,3.95
2023-04-19T15:54:39.066Z,4.28
2023-04-19T15:57:07.138Z,4.15
2023-04-19T15:59:35.106Z,4.25
2023-04-19T16:02:03.236Z,4.10
2023-04-19T16:04:32.214Z,4.17
2023-04-19T16:07:00.475Z,4.40
2023-04-19T16:09:28.516Z,4.90
2023-04-19T16:11:56.466Z,4.55
2023-04-19T16:14:25.180Z,4.50
2023-04-19T16:16:55.096Z,4.72
2023-04-19T16:19:26.539Z,4.40
2023-04-19T16:21:54.600Z,7.57
2023-04-19T16:24:22.582Z,9.53
2023-04-19T16:26:50.656Z,5.10
2023-04-19T16:29:19.157Z,5.13
2023-04-19T16:31:48.985Z,4.93
2023-04-19T16:34:18.529Z,5.50
2023-04-19T16:36:46.926Z,18.60
2023-04-19T16:39:15.047Z,6.07
2023-04-19T16:41:43.179Z,5.83
2023-04-19T16:44:11.998Z,5.00
2023-04-19T16:46:40.184Z,5.00
2023-04-19T16:49:08.497Z,5.90
2023-04-19T16:51:36.475Z,4.97
2023-04-19T16:54:04.500Z,4.93
2023-04-19T16:56:32.539Z,5.43
2023-04-19T16:59:00.468Z,5.40
2023-04-19T17:01:28.540Z,5.57
2023-04-19T17:03:57.025Z,5.60
2023-04-19T17:06:25.136Z,5.60
2023-04-19T17:08:53.207Z,6.07
2023-04-19T17:11:21.186Z,5.03
2023-04-19T17:13:49.161Z,4.67
2023-04-19T17:16:17.425Z,4.83
2023-04-19T17:18:45.444Z,4.67
2023-04-19T17:21:14.399Z,9.30
2023-04-19T17:23:42.575Z,2.80
2023-04-19T17:26:10.660Z,2.03
2023-04-19T17:28:38.672Z,1.83
2023-04-19T17:31:06.752Z,1.83
2023-04-19T17:33:34.810Z,1.90
2023-04-19T17:36:02.859Z,1.67
2023-04-19T17:38:30.909Z,1.53
2023-04-19T17:40:59.924Z,2.20
2023-04-19T17:43:28.009Z,2.30
2023-04-19T17:45:56.302Z,2.40
2023-04-19T17:48:24.277Z,2.57
2023-04-19T17:50:52.306Z,2.77
2023-04-19T17:53:20.360Z,2.73
2023-04-19T17:55:48.467Z,2.70
2023-04-19T17:58:16.635Z,3.13
2023-04-19T18:00:44.760Z,2.83
2023-04-19T18:03:13.001Z,3.47
2023-04-19T18:05:41.759Z,3.27
2023-04-19T18:08:09.994Z,3.47
2023-04-19T18:10:38.037Z,3.40
2023-04-19T18:13:06.122Z,3.87
2023-04-19T18:15:34.144Z,3.93
2023-04-19T18:18:02.206Z,3.70
2023-04-19T18:20:30.373Z,4.37
2023-04-19T18:23:01.301Z,4.13
2023-04-19T18:25:32.845Z,3.77
2023-04-19T18:28:00.995Z,4.53
2023-04-19T18:30:29.254Z,4.30
2023-04-19T18:32:57.364Z,4.73
2023-04-19T18:35:25.494Z,4.80
2023-04-19T18:37:53.595Z,4.97
2023-04-19T18:40:21.626Z,4.50
2023-04-19T18:42:49.679Z,4.17
2023-04-19T18:45:17.985Z,3.87
2023-04-19T18:47:46.139Z,4.30
2023-04-19T18:50:18.629Z,4.30
2023-04-19T18:52:47.428Z,4.70
2023-04-19T18:55:15.510Z,4.73
2023-04-19T18:57:43.572Z,4.10
2023-04-19T19:00:12.608Z,4.00
2023-04-19T19:02:41.430Z,4.00
2023-04-19T19:05:13.090Z,4.57
2023-04-19T19:07:42.843Z,4.30
2023-04-19T19:12:42.569Z,4.37
2023-04-19T19:15:11.090Z,3.97
2023-04-19T19:17:39.365Z,4.20
2023-04-19T19:20:08.114Z,4.57
2023-04-19T19:22:36.219Z,4.40
2023-04-19T19:25:04.252Z,5.10
2023-04-19T19:27:32.324Z,4.40
2023-04-19T19:30:00.585Z,4.47
2023-04-19T19:32:28.779Z,4.73
2023-04-19T19:35:01.774Z,4.40
2023-04-19T19:37:32.550Z,4.33
2023-04-19T19:40:04.049Z,4.40
2023-04-19T19:42:34.899Z,4.07
2023-04-19T19:45:05.897Z,4.40
2023-04-19T19:47:36.486Z,4.57
2023-04-19T19:50:50.600Z,4.10
2023-04-19T19:52:53.777Z,3.97
2023-04-19T19:55:21.856Z,4.50
2023-04-19T19:58:23.733Z,4.37
2023-04-19T20:00:46.140Z,4.20
2023-04-19T20:03:16.735Z,3.43
2023-04-19T20:05:52.868Z,3.50
2023-04-19T20:08:21.214Z,3.37
2023-04-19T20:10:49.334Z,3.07
2023-04-19T20:13:17.716Z,3.57
2023-04-19T20:15:48.524Z,3.13
2023-04-19T20:18:16.762Z,3.37
2023-04-19T20:20:44.833Z,3.37
2023-04-19T20:23:12.814Z,3.20
2023-04-19T20:25:40.800Z,2.90
2023-04-19T20:28:10.665Z,2.70
2023-04-19T20:30:38.724Z,2.53
2023-04-19T20:33:06.890Z,2.10
2023-04-19T20:35:37.840Z,1.90
2023-04-19T20:38:05.939Z,1.90
2023-04-19T20:40:34.428Z,2.00
2023-04-19T20:43:02.501Z,2.53
2023-04-19T20:45:31.198Z,2.23
2023-04-19T20:47:59.960Z,1.87
2023-04-19T20:50:28.099Z,2.00
2023-04-19T20:52:56.168Z,2.10
2023-04-19T20:55:24.295Z,2.10
2023-04-19T20:57:52.538Z,2.73
2023-04-19T21:00:20.792Z,2.23
2023-04-19T21:02:48.926Z,2.43
2023-04-19T21:05:17.345Z,2.23
2023-04-19T21:07:45.433Z,2.13
2023-04-19T21:10:13.548Z,2.10
2023-04-19T21:12:42.086Z,2.10
2023-04-19T21:15:10.596Z,2.20
2023-04-19T21:17:38.591Z,2.40
2023-04-19T21:20:13.320Z,2.23
2023-04-19T21:22:42.238Z,2.17
2023-04-19T21:25:11.014Z,1.70
2023-04-19T21:27:39.049Z,1.77
2023-04-19T21:30:07.734Z,2.10
2023-04-19T21:32:35.830Z,2.20
2023-04-19T21:35:03.976Z,2.20
2023-04-19T21:37:32.063Z,2.27
2023-04-19T21:40:00.087Z,2.00
2023-04-19T21:42:28.100Z,1.97
2023-04-19T21:44:56.191Z,2.10
2023-04-19T21:47:24.336Z,2.03
2023-04-19T21:49:52.862Z,1.60
2023-04-19T21:52:21.016Z,2.13
2023-04-19T21:54:50.071Z,2.07
2023-04-19T21:57:20.839Z,1.90
2023-04-19T21:59:48.829Z,2.10
2023-04-19T22:02:16.920Z,2.10
2023-04-19T22:04:46.065Z,2.03
2023-04-19T22:07:14.138Z,1.80
2023-04-19T22:09:42.234Z,2.17
2023-04-19T22:12:11.034Z,2.00
2023-04-19T22:14:39.226Z,1.90
2023-04-19T22:17:07.328Z,1.77
2023-04-19T22:19:35.545Z,2.10
2023-04-19T22:22:03.752Z,2.17
2023-04-19T22:24:31.889Z,1.93
2023-04-19T22:27:00.119Z,2.17
2023-04-19T22:29:28.071Z,2.03
2023-04-19T22:31:56.036Z,1.93
2023-04-19T22:34:24.078Z,2.60
2023-04-19T22:36:52.135Z,2.40
2023-04-19T22:39:20.125Z,2.20
2023-04-19T22:41:48.118Z,2.00
2023-04-19T22:44:16.166Z,2.40
2023-04-19T22:46:45.174Z,2.20
2023-04-19T22:49:13.259Z,2.13
2023-04-19T22:51:43.698Z,2.20
2023-04-19T22:54:11.941Z,2.27
2023-04-19T22:56:40.734Z,2.70
2023-04-19T22:59:09.734Z,2.63
2023-04-19T23:01:37.815Z,2.60
2023-04-19T23:04:05.949Z,2.70
2023-04-19T23:06:33.948Z,2.40
2023-04-19T23:09:02.108Z,2.60
2023-04-19T23:11:31.301Z,2.30
2023-04-19T23:13:59.360Z,2.50
2023-04-19T23:16:27.561Z,2.57
2023-04-19T23:18:56.364Z,2.80
2023-04-19T23:21:24.478Z,2.40
2023-04-19T23:23:52.492Z,2.40
2023-04-19T23:26:20.465Z,2.70
2023-04-19T23:28:48.565Z,2.83
2023-04-19T23:31:16.649Z,3.17
2023-04-19T23:33:44.757Z,2.80
2023-04-19T23:36:12.720Z,2.83
2023-04-19T23:38:40.741Z,2.60
2023-04-19T23:41:12.140Z,2.80
2023-04-19T23:43:40.103Z,2.77
2023-04-19T23:46:08.487Z,3.20
2023-04-19T23:48:36.653Z,2.70
2023-04-19T23:51:04.572Z,2.63
2023-04-19T23:53:32.865Z,2.87
2023-04-19T23:56:00.859Z,2.93
2023-04-19T23:58:28.879Z,2.40
